»·PEaware :: N335AK KSAC-KSVE

N335AK :: KSAC-KSVE

FLIGHT INFORMATION

Flight Status: Arrived
Operator: Privately registered:
United States
More flights under this callsign
Pilot: Gabor H. (24209)
Aircraft: Unknown
(EPIC)
More flights by this aircraft type
Origin: KSAC Sacramento Executive
United States
Destination: KSVE Susanville Mun
United States
More flights between these airports :: More routes between these airports
Route: SAC V6 FMG V452 HALLE
File this flight plan on PilotEdge
Remarks:
Altitude:
(Current/Filed)
17,000ft
Speed:
(Current/Filed)
325kts
Departed: 20-Sep-20 04:22 PM
Arrived: 20-Sep-20 05:04 PM
Distance/Time
Traveled:
120nm/0:42
Distance/Time
To Go:
Arrived

Flight Plot

Page will automatically refresh every two minutes.

Flight plan parsing failed; only flown route is shown


Map Options




Map Legend


Flown Route
Filed Route
Departure Airport
Arrival Airport
Navaid (VOR, NDB)
Fix

Horizontal Profiles

Position Reports

Time Latitude Longitude Heading Altitude Ground
Speed
20-Sep-20 15:54 38.514770 -121.498394 226 23ft 0kts
20-Sep-20 15:55 38.514770 -121.498394 226 23ft 0kts
20-Sep-20 15:56 38.514770 -121.498394 226 23ft 0kts
20-Sep-20 15:57 38.514770 -121.498394 226 23ft 0kts
20-Sep-20 15:58 38.514770 -121.498394 226 23ft 0kts
20-Sep-20 16:07 38.514770 -121.498394 226 23ft 0kts
20-Sep-20 16:08 38.514770 -121.498394 226 23ft 0kts
20-Sep-20 16:09 38.514770 -121.498394 226 23ft 0kts
20-Sep-20 16:10 38.514770 -121.498394 226 23ft 0kts
20-Sep-20 16:11 38.514770 -121.498394 226 23ft 0kts
20-Sep-20 16:12 38.514770 -121.498394 226 23ft 0kts
20-Sep-20 16:13 38.514770 -121.498394 226 23ft 0kts
20-Sep-20 16:14 38.514770 -121.498394 226 23ft 0kts
20-Sep-20 16:15 38.514770 -121.498394 226 23ft 0kts
20-Sep-20 16:16 38.514770 -121.498394 226 23ft 0kts
20-Sep-20 16:17 38.514462 -121.498381 130 23ft 13kts
20-Sep-20 16:18 38.514681 -121.494541 32 25ft 21kts
20-Sep-20 16:19 38.519230 -121.490426 92 25ft 2kts
20-Sep-20 16:20 38.519218 -121.490299 100 25ft 0kts
20-Sep-20 16:21 38.514516 -121.493045 214 28ft 106kts
20-Sep-20 16:22 38.475296 -121.525575 213 1992ft 211kts
20-Sep-20 16:23 38.422135 -121.570771 213 3016ft 244kts
20-Sep-20 16:24 38.369191 -121.617263 213 4564ft 219kts
20-Sep-20 16:25 38.317630 -121.656895 181 6985ft 223kts
20-Sep-20 16:26 38.308939 -121.595481 53 9351ft 240kts
20-Sep-20 16:27 38.348968 -121.525278 53 11774ft 248kts
20-Sep-20 16:28 38.393512 -121.455248 49 13734ft 257kts
20-Sep-20 16:29 38.440127 -121.383472 49 15434ft 264kts
20-Sep-20 16:30 38.487656 -121.310139 49 16894ft 271kts
20-Sep-20 16:31 38.539775 -121.229512 49 17015ft 311kts
20-Sep-20 16:32 38.596826 -121.141045 50 17028ft 327kts
20-Sep-20 16:33 38.655757 -121.049409 51 17074ft 334kts
20-Sep-20 16:34 38.715112 -120.956850 51 17137ft 335kts
20-Sep-20 16:35 38.774577 -120.863835 51 17135ft 337kts
20-Sep-20 16:36 38.834448 -120.769929 51 17136ft 337kts
20-Sep-20 16:37 38.893932 -120.676349 51 17153ft 337kts
20-Sep-20 16:38 38.953455 -120.582433 51 17203ft 337kts
20-Sep-20 16:39 39.012797 -120.488533 50 17254ft 337kts
20-Sep-20 16:40 39.072096 -120.394433 50 17287ft 337kts
20-Sep-20 16:41 39.128681 -120.304373 51 17282ft 337kts
20-Sep-20 16:42 39.188403 -120.209041 51 17084ft 341kts
20-Sep-20 16:43 39.247902 -120.113780 51 17081ft 338kts
20-Sep-20 16:44 39.307151 -120.018634 51 17081ft 338kts
20-Sep-20 16:46 39.366588 -119.922898 51 17060ft 338kts
20-Sep-20 16:47 39.425701 -119.827397 51 17023ft 338kts
20-Sep-20 16:48 39.484982 -119.731334 51 17000ft 338kts
20-Sep-20 16:49 39.562636 -119.685053 339 17017ft 331kts
20-Sep-20 16:50 39.643917 -119.741261 328 17029ft 330kts
20-Sep-20 16:51 39.723991 -119.801947 328 17046ft 330kts
20-Sep-20 16:52 39.804294 -119.863008 328 16610ft 343kts
20-Sep-20 16:53 39.887143 -119.926142 328 14399ft 327kts
20-Sep-20 16:54 39.957535 -119.994546 317 12956ft 310kts
20-Sep-20 16:55 40.021972 -120.068661 317 11581ft 303kts
20-Sep-20 16:56 40.083427 -120.139597 317 10270ft 283kts
20-Sep-20 16:57 40.132936 -120.211612 309 9654ft 264kts
20-Sep-20 16:58 40.179892 -120.286211 309 9106ft 263kts
20-Sep-20 16:59 40.226689 -120.360729 309 8103ft 260kts
20-Sep-20 17:00 40.272706 -120.430291 314 7024ft 238kts
20-Sep-20 17:01 40.315414 -120.487910 315 5804ft 200kts
20-Sep-20 17:01 40.344402 -120.527090 315 4966ft 149kts
20-Sep-20 17:03 40.372645 -120.565882 310 4143ft 119kts
20-Sep-20 17:04 40.377214 -120.575742 252 4150ft 7kts
20-Sep-20 17:04 40.376686 -120.577392 342 4151ft 0kts
20-Sep-20 17:05 40.376686 -120.577392 342 4151ft 0kts

Navigation Log

Ident Type
Flight plan parsing failed, navigation log unavailable